createdAt,value
2022-11-16T00:01:10.363Z,17.83
2022-11-16T00:04:14.273Z,16.48
2022-11-16T00:07:18.764Z,24.05
2022-11-16T00:10:22.524Z,25.17
2022-11-16T00:13:25.452Z,25.58
2022-11-16T00:16:29.661Z,20.47
2022-11-16T00:19:33.280Z,21.25
2022-11-16T00:22:36.873Z,18.55
2022-11-16T00:25:40.465Z,20.08
2022-11-16T00:28:44.117Z,23.00
2022-11-16T00:31:48.534Z,24.50
2022-11-16T00:34:51.470Z,25.65
2022-11-16T00:37:54.628Z,30.75
2022-11-16T00:40:57.671Z,32.85
2022-11-16T00:44:01.717Z,29.55
2022-11-16T00:47:05.541Z,22.97
2022-11-16T00:50:09.118Z,19.48
2022-11-16T00:53:19.783Z,13.10
2022-11-16T00:56:23.390Z,10.82
2022-11-16T00:59:26.391Z,11.27
2022-11-16T01:02:33.006Z,11.63
2022-11-16T01:05:36.482Z,9.55
2022-11-16T01:08:40.797Z,8.88
2022-11-16T01:12:03.026Z,9.52
2022-11-16T01:15:10.050Z,12.23
2022-11-16T01:18:13.791Z,12.83
2022-11-16T01:21:18.273Z,17.17
2022-11-16T01:24:22.080Z,18.77
2022-11-16T01:27:26.408Z,19.80
2022-11-16T01:30:30.895Z,18.23
2022-11-16T01:33:43.015Z,19.83
2022-11-16T01:36:55.778Z,24.00
2022-11-16T01:40:02.836Z,28.77
2022-11-16T01:43:20.950Z,27.33
2022-11-16T01:46:26.191Z,23.30
2022-11-16T01:49:35.596Z,19.73
2022-11-16T01:52:45.430Z,21.30
2022-11-16T01:55:50.169Z,15.52
2022-11-16T01:59:00.740Z,16.10
2022-11-16T02:02:06.214Z,15.00
2022-11-16T02:05:14.340Z,15.57
2022-11-16T02:08:47.147Z,25.00
2022-11-16T02:12:44.389Z,29.73
2022-11-16T02:15:55.274Z,29.10
2022-11-16T02:19:44.387Z,26.55
2022-11-16T02:23:11.295Z,18.10
2022-11-16T02:26:27.436Z,18.40
2022-11-16T02:29:44.966Z,15.73
2022-11-16T02:32:58.554Z,14.48
2022-11-16T02:36:05.858Z,16.92
2022-11-16T02:39:15.730Z,16.37
2022-11-16T02:42:27.115Z,14.65
2022-11-16T02:45:36.533Z,16.25
2022-11-16T02:48:46.865Z,14.70
2022-11-16T02:51:52.933Z,17.08
2022-11-16T02:54:57.145Z,14.90
2022-11-16T02:58:07.148Z,16.38
2022-11-16T03:01:30.656Z,16.30
2022-11-16T03:04:45.503Z,17.17
2022-11-16T03:07:56.363Z,18.45
2022-11-16T03:11:26.256Z,19.50
2022-11-16T03:14:45.896Z,18.65
2022-11-16T03:17:51.268Z,17.52
2022-11-16T03:21:21.161Z,20.13
2022-11-16T03:24:25.089Z,23.35
2022-11-16T03:27:51.752Z,18.70
2022-11-16T03:31:06.571Z,21.67
2022-11-16T03:34:17.135Z,21.17
2022-11-16T03:37:21.041Z,19.67
2022-11-16T03:40:27.798Z,24.95
2022-11-16T03:43:31.994Z,26.97
2022-11-16T03:46:36.270Z,25.27
2022-11-16T03:49:45.490Z,24.50
2022-11-16T03:52:50.977Z,21.52
2022-11-16T03:55:54.304Z,26.23
2022-11-16T03:58:57.662Z,28.83
2022-11-16T04:02:00.726Z,39.33
2022-11-16T04:05:23.090Z,42.03
2022-11-16T04:08:45.140Z,40.42
2022-11-16T04:12:09.674Z,44.08
2022-11-16T04:15:32.396Z,44.70
2022-11-16T04:18:55.837Z,46.17
2022-11-16T04:22:24.950Z,45.42
2022-11-16T04:25:35.084Z,45.33
2022-11-16T04:28:40.172Z,45.92
2022-11-16T04:32:01.517Z,43.67
2022-11-16T04:35:23.397Z,44.75
2022-11-16T04:38:26.867Z,43.53
2022-11-16T04:41:50.815Z,42.55
2022-11-16T04:45:12.595Z,41.15
2022-11-16T04:48:22.902Z,38.07
2022-11-16T04:51:29.339Z,39.55
2022-11-16T04:54:33.659Z,34.53
2022-11-16T04:57:38.445Z,34.55
2022-11-16T05:00:42.404Z,34.92
2022-11-16T05:03:47.594Z,35.67
2022-11-16T05:06:51.458Z,37.05
2022-11-16T05:09:55.887Z,37.40
2022-11-16T05:12:59.932Z,40.00
2022-11-16T05:16:04.367Z,44.58
2022-11-16T05:19:26.221Z,42.83
2022-11-16T05:22:31.214Z,45.10
2022-11-16T05:25:37.305Z,42.85
2022-11-16T05:28:45.334Z,39.08
2022-11-16T05:31:49.244Z,40.25
2022-11-16T05:34:54.512Z,42.27
2022-11-16T05:38:00.762Z,41.00
2022-11-16T05:41:04.505Z,41.88
2022-11-16T05:44:08.563Z,42.63
2022-11-16T05:47:12.594Z,42.70
2022-11-16T05:50:16.613Z,38.73
2022-11-16T05:53:22.618Z,38.30
2022-11-16T05:56:27.030Z,35.63
2022-11-16T05:59:31.071Z,35.03
2022-11-16T06:02:37.219Z,35.58
2022-11-16T06:05:40.901Z,32.87
2022-11-16T06:08:48.734Z,33.50
2022-11-16T06:11:57.149Z,34.13
2022-11-16T06:15:00.789Z,32.65
2022-11-16T06:18:04.920Z,32.45
2022-11-16T06:21:09.531Z,31.33
2022-11-16T06:24:13.164Z,30.95
2022-11-16T06:27:18.425Z,35.00
2022-11-16T06:30:22.071Z,35.05
2022-11-16T06:33:29.596Z,27.50
2022-11-16T06:36:35.880Z,26.93
2022-11-16T06:39:40.589Z,28.10
2022-11-16T06:42:44.893Z,25.40
2022-11-16T06:45:51.986Z,24.70
2022-11-16T06:48:57.084Z,26.42
2022-11-16T06:52:01.321Z,26.63
2022-11-16T06:55:05.567Z,23.95
2022-11-16T06:58:12.153Z,28.33
2022-11-16T07:01:17.370Z,26.95
2022-11-16T07:04:23.813Z,27.52
2022-11-16T07:07:32.566Z,27.40
2022-11-16T07:10:39.173Z,23.15
2022-11-16T07:13:43.692Z,26.50
2022-11-16T07:16:47.635Z,25.70
2022-11-16T07:19:51.581Z,22.83
2022-11-16T07:22:56.176Z,23.57
2022-11-16T07:26:07.139Z,28.55
2022-11-16T07:29:27.896Z,29.20
2022-11-16T07:33:04.829Z,26.27
2022-11-16T07:36:27.396Z,24.92
2022-11-16T07:39:31.885Z,31.47
2022-11-16T07:42:36.069Z,37.70
2022-11-16T07:49:40.057Z,35.33
2022-11-16T07:52:48.949Z,82.97
2022-11-16T07:55:57.660Z,84.90
2022-11-16T07:59:02.923Z,34.35
2022-11-16T08:02:11.609Z,30.35
2022-11-16T08:05:17.112Z,31.05
2022-11-16T08:08:20.919Z,29.00
2022-11-16T08:11:25.532Z,28.03
2022-11-16T08:14:29.426Z,35.78
2022-11-16T08:17:32.770Z,41.38
2022-11-16T08:20:38.327Z,47.30
2022-11-16T08:23:42.664Z,48.80
2022-11-16T08:26:46.718Z,46.77
2022-11-16T08:29:51.234Z,46.30
2022-11-16T08:32:54.663Z,39.90
2022-11-16T08:35:57.748Z,35.50
2022-11-16T08:39:01.840Z,28.67
2022-11-16T08:42:07.556Z,25.93
2022-11-16T08:45:12.122Z,23.98
2022-11-16T08:48:17.305Z,23.98
2022-11-16T08:51:21.329Z,21.88
2022-11-16T08:54:32.121Z,20.85
2022-11-16T08:57:36.173Z,21.33
2022-11-16T09:00:44.088Z,23.50
2022-11-16T09:03:48.325Z,22.38
2022-11-16T09:06:53.485Z,20.02
2022-11-16T09:09:57.739Z,28.08
2022-11-16T09:13:01.720Z,31.90
2022-11-16T09:16:06.523Z,29.40
2022-11-16T09:19:11.253Z,30.35
2022-11-16T09:22:15.113Z,24.67
2022-11-16T09:25:19.681Z,27.38
2022-11-16T09:28:24.497Z,32.53
2022-11-16T09:31:29.474Z,34.33
2022-11-16T09:34:35.832Z,25.88
2022-11-16T09:37:39.191Z,20.73
2022-11-16T09:40:46.870Z,20.85
2022-11-16T09:44:10.301Z,19.87
2022-11-16T09:47:27.806Z,28.95
2022-11-16T09:50:57.659Z,23.88
2022-11-16T09:54:07.677Z,20.17
2022-11-16T09:57:16.181Z,19.33
2022-11-16T10:00:26.806Z,21.77
2022-11-16T10:03:36.871Z,34.78
2022-11-16T10:07:02.177Z,38.63
2022-11-16T16:24:56.038Z,16.70
2022-11-16T16:27:59.890Z,16.25
2022-11-16T16:31:03.726Z,16.83
2022-11-16T16:34:13.287Z,15.73
2022-11-16T16:37:19.488Z,14.77
2022-11-16T16:40:24.257Z,16.15
2022-11-16T16:43:38.721Z,15.90
2022-11-16T16:46:42.980Z,14.05
2022-11-16T16:49:48.204Z,14.75
2022-11-16T16:52:52.279Z,13.47
2022-11-16T16:55:56.162Z,12.30
2022-11-16T16:59:01.038Z,12.40
2022-11-16T17:02:04.803Z,12.07
2022-11-16T17:05:08.889Z,13.38
2022-11-16T17:08:12.777Z,13.00
2022-11-16T17:11:18.452Z,12.85
2022-11-16T17:14:25.080Z,12.90
2022-11-16T17:17:29.976Z,11.38
2022-11-16T17:20:34.402Z,11.27
2022-11-16T17:23:38.951Z,11.93
2022-11-16T17:26:43.241Z,12.07
2022-11-16T17:29:46.940Z,10.43
2022-11-16T17:32:51.455Z,11.40
2022-11-16T17:35:59.412Z,11.38
2022-11-16T17:39:03.336Z,11.10
2022-11-16T17:42:12.586Z,10.98
2022-11-16T17:45:16.354Z,11.88
2022-11-16T17:48:20.407Z,10.38
2022-11-16T17:51:27.635Z,11.38
2022-11-16T17:54:31.460Z,9.53
2022-11-16T17:57:35.224Z,9.65
2022-11-16T18:00:39.384Z,9.55
2022-11-16T18:03:43.295Z,9.02
2022-11-16T18:06:47.596Z,8.93
2022-11-16T18:09:51.359Z,8.73
2022-11-16T18:12:55.606Z,7.72
2022-11-16T18:16:13.123Z,8.35
2022-11-16T18:19:20.121Z,9.38
2022-11-16T18:22:23.846Z,8.80
2022-11-16T18:25:28.353Z,8.07
2022-11-16T18:28:32.810Z,7.50
2022-11-16T18:31:36.538Z,8.35
2022-11-16T18:34:39.886Z,7.40
2022-11-16T18:37:43.811Z,6.30
2022-11-16T18:40:46.952Z,6.33
2022-11-16T18:43:58.427Z,5.65
2022-11-16T18:47:03.131Z,5.78
2022-11-16T18:50:18.042Z,6.35
2022-11-16T18:53:22.846Z,6.28
2022-11-16T18:56:27.444Z,6.30
2022-11-16T18:59:30.867Z,5.65
2022-11-16T19:02:33.794Z,5.25
2022-11-16T19:05:37.871Z,4.75
2022-11-16T19:08:41.997Z,5.13
2022-11-16T19:11:45.150Z,4.20
2022-11-16T19:14:48.141Z,4.35
2022-11-16T19:18:14.590Z,4.20
2022-11-16T19:21:16.636Z,4.43
2022-11-16T19:24:20.242Z,4.22
2022-11-16T19:27:23.080Z,3.80
2022-11-16T19:30:27.154Z,3.75
2022-11-16T19:33:30.915Z,3.63
2022-11-16T19:36:36.889Z,3.30
2022-11-16T19:39:40.623Z,3.83
2022-11-16T19:42:44.588Z,2.83
2022-11-16T19:45:47.491Z,2.85
2022-11-16T19:48:52.168Z,2.80
2022-11-16T19:51:55.853Z,2.65
2022-11-16T19:54:59.947Z,3.03
2022-11-16T19:58:03.735Z,3.10
2022-11-16T20:01:08.627Z,3.95
2022-11-16T20:04:11.723Z,4.15
2022-11-16T20:07:18.886Z,3.53
2022-11-16T20:10:22.286Z,3.40
2022-11-16T20:13:25.660Z,2.87
2022-11-16T20:16:38.155Z,3.33
2022-11-16T20:19:42.600Z,3.40
2022-11-16T20:22:49.314Z,3.85
2022-11-16T20:25:53.472Z,4.18
2022-11-16T20:28:57.655Z,3.90
2022-11-16T20:32:01.593Z,3.80
2022-11-16T20:35:04.781Z,3.85
2022-11-16T20:38:08.897Z,3.83
2022-11-16T20:41:14.521Z,4.00
2022-11-16T20:44:22.767Z,5.17
2022-11-16T20:47:25.976Z,4.15
2022-11-16T20:50:30.058Z,4.00
2022-11-16T20:53:34.002Z,4.97
2022-11-16T20:56:38.142Z,5.95
2022-11-16T20:59:41.324Z,4.40
2022-11-16T21:02:45.385Z,3.83
2022-11-16T21:05:52.689Z,5.15
2022-11-16T21:08:56.658Z,5.15
2022-11-16T21:12:18.661Z,5.35
2022-11-16T21:15:22.009Z,4.93
2022-11-16T21:18:30.554Z,5.30
2022-11-16T21:21:35.215Z,5.30
2022-11-16T21:24:38.202Z,4.60
2022-11-16T21:27:42.084Z,4.72
2022-11-16T21:30:58.851Z,4.97
2022-11-16T21:34:02.708Z,4.90
2022-11-16T21:37:05.839Z,4.10
2022-11-16T21:40:09.471Z,5.13
2022-11-16T21:43:15.530Z,4.32
2022-11-16T21:46:21.153Z,5.10
2022-11-16T21:49:25.075Z,5.88
2022-11-16T21:52:29.813Z,7.20
2022-11-16T21:55:33.750Z,7.43
2022-11-16T21:58:37.100Z,6.70
2022-11-16T22:01:59.815Z,6.97
2022-11-16T22:05:22.733Z,6.90
2022-11-16T22:08:25.795Z,7.18
2022-11-16T22:11:29.795Z,5.28
2022-11-16T22:14:32.702Z,6.53
2022-11-16T22:17:36.706Z,4.60
2022-11-16T22:20:40.738Z,5.38
2022-11-16T22:23:44.715Z,5.65
2022-11-16T22:26:48.905Z,5.18
2022-11-16T22:29:53.049Z,4.55
2022-11-16T22:32:56.064Z,4.80
2022-11-16T22:36:00.139Z,5.30
2022-11-16T22:39:03.544Z,5.95
2022-11-16T22:42:06.775Z,5.72
2022-11-16T22:45:10.181Z,5.53
2022-11-16T22:48:14.197Z,7.10
2022-11-16T22:51:29.217Z,6.07
2022-11-16T22:54:35.213Z,5.60
2022-11-16T22:57:39.175Z,5.35
2022-11-16T23:00:42.856Z,5.05
2022-11-16T23:03:46.997Z,4.80
2022-11-16T23:06:51.094Z,6.15
2022-11-16T23:09:55.287Z,4.95
2022-11-16T23:13:17.141Z,4.25
2022-11-16T23:16:21.392Z,4.15
2022-11-16T23:19:44.007Z,3.00
2022-11-16T23:23:06.583Z,3.92
2022-11-16T23:26:41.767Z,3.42
2022-11-16T23:29:46.244Z,4.28
2022-11-16T23:32:50.638Z,2.20
2022-11-16T23:35:54.993Z,3.00
2022-11-16T23:38:58.238Z,3.15
2022-11-16T23:42:20.698Z,3.60
2022-11-16T23:45:24.513Z,4.13
2022-11-16T23:48:28.337Z,4.65
2022-11-16T23:51:32.130Z,3.63
2022-11-16T23:54:36.006Z,4.55
2022-11-16T23:57:39.358Z,4.43
